sensor_id;sensor_type;location;lat;lon;timestamp;P1;durP1;ratioP1;P2;durP2;ratioP2
57551;SDS011;43379;48.160;14.036;2023-05-07T00:02:24;7.83;;;7.23;;
57551;SDS011;43379;48.160;14.036;2023-05-07T00:04:50;7.30;;;6.70;;
57551;SDS011;43379;48.160;14.036;2023-05-07T00:07:17;8.23;;;7.63;;
57551;SDS011;43379;48.160;14.036;2023-05-07T00:09:43;8.63;;;7.20;;
57551;SDS011;43379;48.160;14.036;2023-05-07T00:12:09;7.97;;;7.33;;
57551;SDS011;43379;48.160;14.036;2023-05-07T00:14:35;7.53;;;6.93;;
57551;SDS011;43379;48.160;14.036;2023-05-07T00:17:01;8.63;;;7.97;;
57551;SDS011;43379;48.160;14.036;2023-05-07T00:19:26;8.53;;;7.67;;
57551;SDS011;43379;48.160;14.036;2023-05-07T00:21:52;8.40;;;7.80;;
57551;SDS011;43379;48.160;14.036;2023-05-07T00:24:22;8.90;;;8.10;;
57551;SDS011;43379;48.160;14.036;2023-05-07T00:26:47;8.20;;;7.23;;
57551;SDS011;43379;48.160;14.036;2023-05-07T00:29:13;8.07;;;7.47;;
57551;SDS011;43379;48.160;14.036;2023-05-07T00:31:39;7.90;;;7.30;;
57551;SDS011;43379;48.160;14.036;2023-05-07T00:34:04;8.67;;;7.97;;
57551;SDS011;43379;48.160;14.036;2023-05-07T00:36:31;8.40;;;7.80;;
57551;SDS011;43379;48.160;14.036;2023-05-07T00:38:57;8.30;;;7.60;;
57551;SDS011;43379;48.160;14.036;2023-05-07T00:41:25;9.10;;;8.50;;
57551;SDS011;43379;48.160;14.036;2023-05-07T00:43:51;10.57;;;9.63;;
57551;SDS011;43379;48.160;14.036;2023-05-07T00:46:17;9.60;;;8.50;;
57551;SDS011;43379;48.160;14.036;2023-05-07T00:48:44;10.13;;;9.50;;
57551;SDS011;43379;48.160;14.036;2023-05-07T00:51:10;9.60;;;8.90;;
57551;SDS011;43379;48.160;14.036;2023-05-07T00:53:36;10.30;;;9.60;;
57551;SDS011;43379;48.160;14.036;2023-05-07T00:56:03;8.83;;;8.00;;
57551;SDS011;43379;48.160;14.036;2023-05-07T00:58:29;8.77;;;7.97;;
57551;SDS011;43379;48.160;14.036;2023-05-07T01:00:55;7.97;;;7.37;;
57551;SDS011;43379;48.160;14.036;2023-05-07T01:03:21;9.03;;;8.13;;
57551;SDS011;43379;48.160;14.036;2023-05-07T01:05:46;8.67;;;8.07;;
57551;SDS011;43379;48.160;14.036;2023-05-07T01:08:15;8.77;;;7.53;;
57551;SDS011;43379;48.160;14.036;2023-05-07T01:10:42;8.97;;;8.27;;
57551;SDS011;43379;48.160;14.036;2023-05-07T01:13:09;8.90;;;8.30;;
57551;SDS011;43379;48.160;14.036;2023-05-07T01:15:35;10.40;;;9.50;;
57551;SDS011;43379;48.160;14.036;2023-05-07T01:18:01;11.20;;;10.20;;
57551;SDS011;43379;48.160;14.036;2023-05-07T01:20:27;11.93;;;10.43;;
57551;SDS011;43379;48.160;14.036;2023-05-07T01:22:53;11.50;;;10.47;;
57551;SDS011;43379;48.160;14.036;2023-05-07T01:25:20;10.90;;;10.00;;
57551;SDS011;43379;48.160;14.036;2023-05-07T01:27:46;11.67;;;10.67;;
57551;SDS011;43379;48.160;14.036;2023-05-07T01:30:12;12.73;;;11.63;;
57551;SDS011;43379;48.160;14.036;2023-05-07T01:32:40;13.27;;;11.93;;
57551;SDS011;43379;48.160;14.036;2023-05-07T01:35:27;12.70;;;11.50;;
57551;SDS011;43379;48.160;14.036;2023-05-07T01:37:57;12.77;;;11.60;;
57551;SDS011;43379;48.160;14.036;2023-05-07T01:40:23;13.47;;;12.13;;
57551;SDS011;43379;48.160;14.036;2023-05-07T01:42:50;13.60;;;12.30;;
57551;SDS011;43379;48.160;14.036;2023-05-07T01:45:16;13.60;;;12.33;;
57551;SDS011;43379;48.160;14.036;2023-05-07T01:47:42;13.27;;;12.07;;
57551;SDS011;43379;48.160;14.036;2023-05-07T01:50:08;15.30;;;13.90;;
57551;SDS011;43379;48.160;14.036;2023-05-07T01:52:35;15.83;;;14.23;;
57551;SDS011;43379;48.160;14.036;2023-05-07T01:55:02;15.00;;;13.60;;
57551;SDS011;43379;48.160;14.036;2023-05-07T01:57:28;13.43;;;12.10;;
57551;SDS011;43379;48.160;14.036;2023-05-07T01:59:54;14.83;;;13.37;;
57551;SDS011;43379;48.160;14.036;2023-05-07T02:02:20;14.40;;;13.20;;
57551;SDS011;43379;48.160;14.036;2023-05-07T02:04:45;14.03;;;12.80;;
57551;SDS011;43379;48.160;14.036;2023-05-07T02:07:11;13.83;;;12.47;;
57551;SDS011;43379;48.160;14.036;2023-05-07T02:09:37;13.03;;;11.83;;
57551;SDS011;43379;48.160;14.036;2023-05-07T02:12:03;13.37;;;12.27;;
57551;SDS011;43379;48.160;14.036;2023-05-07T02:14:29;11.63;;;10.73;;
57551;SDS011;43379;48.160;14.036;2023-05-07T02:16:55;13.00;;;11.87;;
57551;SDS011;43379;48.160;14.036;2023-05-07T02:19:20;12.50;;;11.30;;
57551;SDS011;43379;48.160;14.036;2023-05-07T02:21:46;11.57;;;10.57;;
57551;SDS011;43379;48.160;14.036;2023-05-07T02:24:12;11.63;;;10.70;;
57551;SDS011;43379;48.160;14.036;2023-05-07T02:26:39;11.70;;;10.50;;
57551;SDS011;43379;48.160;14.036;2023-05-07T02:29:05;12.00;;;10.97;;
57551;SDS011;43379;48.160;14.036;2023-05-07T02:31:31;11.50;;;10.60;;
57551;SDS011;43379;48.160;14.036;2023-05-07T02:33:58;10.07;;;9.10;;
57551;SDS011;43379;48.160;14.036;2023-05-07T02:36:25;11.33;;;10.00;;
57551;SDS011;43379;48.160;14.036;2023-05-07T02:38:51;9.57;;;8.80;;
57551;SDS011;43379;48.160;14.036;2023-05-07T02:41:17;9.60;;;8.90;;
57551;SDS011;43379;48.160;14.036;2023-05-07T02:43:43;9.97;;;9.27;;
57551;SDS011;43379;48.160;14.036;2023-05-07T02:46:09;9.73;;;8.73;;
57551;SDS011;43379;48.160;14.036;2023-05-07T02:48:34;9.73;;;8.97;;
57551;SDS011;43379;48.160;14.036;2023-05-07T02:51:00;10.80;;;9.80;;
57551;SDS011;43379;48.160;14.036;2023-05-07T02:53:27;10.80;;;9.90;;
57551;SDS011;43379;48.160;14.036;2023-05-07T02:55:55;10.50;;;9.70;;
57551;SDS011;43379;48.160;14.036;2023-05-07T02:58:21;12.57;;;9.50;;
57551;SDS011;43379;48.160;14.036;2023-05-07T03:00:47;11.43;;;10.63;;
57551;SDS011;43379;48.160;14.036;2023-05-07T03:03:13;12.20;;;11.00;;
57551;SDS011;43379;48.160;14.036;2023-05-07T03:05:39;10.73;;;9.93;;
57551;SDS011;43379;48.160;14.036;2023-05-07T03:08:05;11.87;;;10.90;;
57551;SDS011;43379;48.160;14.036;2023-05-07T03:10:30;12.10;;;11.00;;
57551;SDS011;43379;48.160;14.036;2023-05-07T03:12:56;11.30;;;10.40;;
57551;SDS011;43379;48.160;14.036;2023-05-07T03:15:22;11.40;;;10.50;;
57551;SDS011;43379;48.160;14.036;2023-05-07T03:17:47;11.47;;;10.60;;
57551;SDS011;43379;48.160;14.036;2023-05-07T03:20:13;12.57;;;11.53;;
57551;SDS011;43379;48.160;14.036;2023-05-07T03:22:39;12.30;;;11.30;;
57551;SDS011;43379;48.160;14.036;2023-05-07T03:25:05;12.10;;;11.30;;
57551;SDS011;43379;48.160;14.036;2023-05-07T03:27:32;12.73;;;11.63;;
57551;SDS011;43379;48.160;14.036;2023-05-07T03:29:57;12.53;;;11.40;;
57551;SDS011;43379;48.160;14.036;2023-05-07T03:32:23;11.80;;;10.90;;
57551;SDS011;43379;48.160;14.036;2023-05-07T03:34:49;11.83;;;10.83;;
57551;SDS011;43379;48.160;14.036;2023-05-07T03:37:14;13.33;;;12.33;;
57551;SDS011;43379;48.160;14.036;2023-05-07T03:39:40;12.00;;;11.03;;
57551;SDS011;43379;48.160;14.036;2023-05-07T03:42:06;11.03;;;10.13;;
57551;SDS011;43379;48.160;14.036;2023-05-07T03:44:31;12.53;;;11.67;;
57551;SDS011;43379;48.160;14.036;2023-05-07T03:46:57;11.33;;;10.40;;
57551;SDS011;43379;48.160;14.036;2023-05-07T03:49:22;11.73;;;10.87;;
57551;SDS011;43379;48.160;14.036;2023-05-07T03:51:48;12.10;;;11.10;;
57551;SDS011;43379;48.160;14.036;2023-05-07T03:54:14;13.37;;;12.13;;
57551;SDS011;43379;48.160;14.036;2023-05-07T03:56:39;12.43;;;11.53;;
57551;SDS011;43379;48.160;14.036;2023-05-07T03:59:05;11.70;;;10.80;;
57551;SDS011;43379;48.160;14.036;2023-05-07T04:01:31;13.23;;;11.97;;
57551;SDS011;43379;48.160;14.036;2023-05-07T04:03:56;11.23;;;10.33;;
57551;SDS011;43379;48.160;14.036;2023-05-07T04:06:22;11.53;;;10.73;;
57551;SDS011;43379;48.160;14.036;2023-05-07T04:08:48;11.70;;;10.90;;
57551;SDS011;43379;48.160;14.036;2023-05-07T04:11:13;12.90;;;11.80;;
57551;SDS011;43379;48.160;14.036;2023-05-07T04:13:39;11.90;;;10.97;;
57551;SDS011;43379;48.160;14.036;2023-05-07T04:16:05;12.10;;;11.13;;
57551;SDS011;43379;48.160;14.036;2023-05-07T04:18:31;12.13;;;11.23;;
57551;SDS011;43379;48.160;14.036;2023-05-07T04:20:56;12.33;;;11.23;;
57551;SDS011;43379;48.160;14.036;2023-05-07T04:23:22;12.60;;;11.70;;
57551;SDS011;43379;48.160;14.036;2023-05-07T04:25:48;12.83;;;11.93;;
57551;SDS011;43379;48.160;14.036;2023-05-07T04:28:13;12.10;;;11.20;;
57551;SDS011;43379;48.160;14.036;2023-05-07T04:30:39;12.77;;;11.67;;
57551;SDS011;43379;48.160;14.036;2023-05-07T04:33:06;12.67;;;11.73;;
57551;SDS011;43379;48.160;14.036;2023-05-07T04:35:32;11.90;;;11.00;;
57551;SDS011;43379;48.160;14.036;2023-05-07T04:37:58;12.10;;;11.10;;
57551;SDS011;43379;48.160;14.036;2023-05-07T04:40:23;10.60;;;9.80;;
57551;SDS011;43379;48.160;14.036;2023-05-07T04:42:49;11.17;;;10.30;;
57551;SDS011;43379;48.160;14.036;2023-05-07T04:45:16;10.00;;;9.27;;
57551;SDS011;43379;48.160;14.036;2023-05-07T04:47:42;11.27;;;10.27;;
57551;SDS011;43379;48.160;14.036;2023-05-07T04:50:07;9.23;;;8.53;;
57551;SDS011;43379;48.160;14.036;2023-05-07T04:52:33;10.10;;;9.20;;
57551;SDS011;43379;48.160;14.036;2023-05-07T04:54:59;9.47;;;8.60;;
57551;SDS011;43379;48.160;14.036;2023-05-07T04:57:25;8.60;;;7.90;;
57551;SDS011;43379;48.160;14.036;2023-05-07T04:59:51;9.97;;;9.03;;
57551;SDS011;43379;48.160;14.036;2023-05-07T05:02:17;10.33;;;8.50;;
57551;SDS011;43379;48.160;14.036;2023-05-07T05:04:43;9.00;;;8.30;;
57551;SDS011;43379;48.160;14.036;2023-05-07T05:07:08;8.07;;;7.47;;
57551;SDS011;43379;48.160;14.036;2023-05-07T05:09:34;8.47;;;7.77;;
57551;SDS011;43379;48.160;14.036;2023-05-07T05:12:00;8.00;;;7.40;;
57551;SDS011;43379;48.160;14.036;2023-05-07T05:14:25;7.93;;;7.43;;
57551;SDS011;43379;48.160;14.036;2023-05-07T05:16:51;7.60;;;6.90;;
57551;SDS011;43379;48.160;14.036;2023-05-07T05:19:17;8.20;;;7.60;;
57551;SDS011;43379;48.160;14.036;2023-05-07T05:21:42;8.13;;;7.50;;
57551;SDS011;43379;48.160;14.036;2023-05-07T05:24:08;7.20;;;6.70;;
57551;SDS011;43379;48.160;14.036;2023-05-07T05:26:34;8.43;;;7.70;;
57551;SDS011;43379;48.160;14.036;2023-05-07T05:28:59;7.57;;;7.07;;
57551;SDS011;43379;48.160;14.036;2023-05-07T05:31:25;7.80;;;7.20;;
57551;SDS011;43379;48.160;14.036;2023-05-07T05:33:51;7.47;;;6.70;;
57551;SDS011;43379;48.160;14.036;2023-05-07T05:36:16;7.53;;;7.03;;
57551;SDS011;43379;48.160;14.036;2023-05-07T05:38:42;8.17;;;7.37;;
57551;SDS011;43379;48.160;14.036;2023-05-07T05:41:09;7.03;;;6.50;;
57551;SDS011;43379;48.160;14.036;2023-05-07T05:43:35;9.43;;;8.60;;
57551;SDS011;43379;48.160;14.036;2023-05-07T05:46:01;9.37;;;8.50;;
57551;SDS011;43379;48.160;14.036;2023-05-07T05:48:27;8.10;;;7.40;;
57551;SDS011;43379;48.160;14.036;2023-05-07T05:50:53;8.90;;;8.20;;
57551;SDS011;43379;48.160;14.036;2023-05-07T05:53:19;8.73;;;7.93;;
57551;SDS011;43379;48.160;14.036;2023-05-07T05:55:45;8.43;;;7.80;;
57551;SDS011;43379;48.160;14.036;2023-05-07T05:58:11;8.93;;;8.20;;
57551;SDS011;43379;48.160;14.036;2023-05-07T06:00:37;7.90;;;7.20;;
57551;SDS011;43379;48.160;14.036;2023-05-07T06:03:02;7.17;;;6.67;;
57551;SDS011;43379;48.160;14.036;2023-05-07T06:05:28;7.60;;;6.83;;
57551;SDS011;43379;48.160;14.036;2023-05-07T06:07:54;7.70;;;7.10;;
57551;SDS011;43379;48.160;14.036;2023-05-07T06:10:19;7.43;;;6.80;;
57551;SDS011;43379;48.160;14.036;2023-05-07T06:12:45;8.27;;;7.53;;
57551;SDS011;43379;48.160;14.036;2023-05-07T06:15:11;7.70;;;7.10;;
57551;SDS011;43379;48.160;14.036;2023-05-07T06:17:37;7.57;;;7.00;;
57551;SDS011;43379;48.160;14.036;2023-05-07T06:20:02;6.90;;;6.40;;
57551;SDS011;43379;48.160;14.036;2023-05-07T06:22:28;7.53;;;6.83;;
57551;SDS011;43379;48.160;14.036;2023-05-07T06:24:54;7.80;;;7.10;;
57551;SDS011;43379;48.160;14.036;2023-05-07T06:27:19;7.13;;;6.63;;
57551;SDS011;43379;48.160;14.036;2023-05-07T06:29:45;6.67;;;6.10;;
57551;SDS011;43379;48.160;14.036;2023-05-07T06:32:13;8.27;;;7.67;;
57551;SDS011;43379;48.160;14.036;2023-05-07T06:34:39;8.07;;;7.37;;
57551;SDS011;43379;48.160;14.036;2023-05-07T06:37:06;7.90;;;7.30;;
57551;SDS011;43379;48.160;14.036;2023-05-07T06:39:32;7.67;;;6.97;;
57551;SDS011;43379;48.160;14.036;2023-05-07T06:41:59;8.40;;;7.70;;
57551;SDS011;43379;48.160;14.036;2023-05-07T06:44:25;8.90;;;8.10;;
57551;SDS011;43379;48.160;14.036;2023-05-07T06:46:51;8.17;;;7.47;;
57551;SDS011;43379;48.160;14.036;2023-05-07T06:49:16;7.77;;;7.17;;
57551;SDS011;43379;48.160;14.036;2023-05-07T06:51:42;9.47;;;8.63;;
57551;SDS011;43379;48.160;14.036;2023-05-07T06:54:08;9.13;;;8.33;;
57551;SDS011;43379;48.160;14.036;2023-05-07T06:56:33;12.33;;;8.23;;
57551;SDS011;43379;48.160;14.036;2023-05-07T06:59:00;9.83;;;8.87;;
57551;SDS011;43379;48.160;14.036;2023-05-07T07:01:26;9.80;;;9.00;;
57551;SDS011;43379;48.160;14.036;2023-05-07T07:03:52;9.80;;;9.00;;
57551;SDS011;43379;48.160;14.036;2023-05-07T07:06:18;9.13;;;8.33;;
57551;SDS011;43379;48.160;14.036;2023-05-07T07:08:44;9.17;;;8.50;;
57551;SDS011;43379;48.160;14.036;2023-05-07T07:11:09;8.83;;;8.10;;
57551;SDS011;43379;48.160;14.036;2023-05-07T07:13:35;10.17;;;9.27;;
57551;SDS011;43379;48.160;14.036;2023-05-07T07:16:01;9.40;;;8.57;;
57551;SDS011;43379;48.160;14.036;2023-05-07T07:18:28;8.13;;;7.43;;
57551;SDS011;43379;48.160;14.036;2023-05-07T07:20:53;9.23;;;8.43;;
57551;SDS011;43379;48.160;14.036;2023-05-07T07:23:19;10.00;;;9.17;;
57551;SDS011;43379;48.160;14.036;2023-05-07T07:25:45;11.03;;;9.03;;
57551;SDS011;43379;48.160;14.036;2023-05-07T07:28:11;9.87;;;9.10;;
57551;SDS011;43379;48.160;14.036;2023-05-07T07:30:37;10.27;;;9.43;;
57551;SDS011;43379;48.160;14.036;2023-05-07T07:33:03;9.87;;;9.07;;
57551;SDS011;43379;48.160;14.036;2023-05-07T07:35:29;10.10;;;9.30;;
57551;SDS011;43379;48.160;14.036;2023-05-07T07:37:55;11.50;;;10.50;;
57551;SDS011;43379;48.160;14.036;2023-05-07T07:40:20;10.53;;;9.63;;
57551;SDS011;43379;48.160;14.036;2023-05-07T07:42:46;10.50;;;9.73;;
57551;SDS011;43379;48.160;14.036;2023-05-07T07:45:12;11.83;;;10.73;;
57551;SDS011;43379;48.160;14.036;2023-05-07T07:47:38;10.63;;;9.77;;
57551;SDS011;43379;48.160;14.036;2023-05-07T07:50:05;10.87;;;9.97;;
57551;SDS011;43379;48.160;14.036;2023-05-07T07:52:31;10.90;;;10.10;;
57551;SDS011;43379;48.160;14.036;2023-05-07T07:54:57;10.60;;;9.80;;
57551;SDS011;43379;48.160;14.036;2023-05-07T07:57:22;10.23;;;9.33;;
57551;SDS011;43379;48.160;14.036;2023-05-07T07:59:48;10.10;;;9.30;;
57551;SDS011;43379;48.160;14.036;2023-05-07T08:02:15;9.63;;;8.90;;
57551;SDS011;43379;48.160;14.036;2023-05-07T08:04:40;11.17;;;10.20;;
57551;SDS011;43379;48.160;14.036;2023-05-07T08:07:08;12.40;;;10.13;;
57551;SDS011;43379;48.160;14.036;2023-05-07T08:09:34;9.60;;;8.80;;
57551;SDS011;43379;48.160;14.036;2023-05-07T08:12:00;9.47;;;8.60;;
57551;SDS011;43379;48.160;14.036;2023-05-07T08:14:26;10.10;;;9.30;;
57551;SDS011;43379;48.160;14.036;2023-05-07T08:16:53;7.23;;;6.63;;
57551;SDS011;43379;48.160;14.036;2023-05-07T08:19:19;8.80;;;8.03;;
57551;SDS011;43379;48.160;14.036;2023-05-07T08:21:46;9.70;;;8.90;;
57551;SDS011;43379;48.160;14.036;2023-05-07T08:24:15;10.13;;;9.33;;
57551;SDS011;43379;48.160;14.036;2023-05-07T08:26:41;10.57;;;9.77;;
57551;SDS011;43379;48.160;14.036;2023-05-07T08:29:08;10.03;;;9.23;;
57551;SDS011;43379;48.160;14.036;2023-05-07T08:31:34;9.93;;;9.03;;
57551;SDS011;43379;48.160;14.036;2023-05-07T08:34:00;8.63;;;7.60;;
57551;SDS011;43379;48.160;14.036;2023-05-07T08:36:25;8.57;;;7.87;;
57551;SDS011;43379;48.160;14.036;2023-05-07T08:38:51;8.20;;;7.60;;
57551;SDS011;43379;48.160;14.036;2023-05-07T08:41:18;9.17;;;8.47;;
57551;SDS011;43379;48.160;14.036;2023-05-07T08:43:46;9.00;;;8.30;;
57551;SDS011;43379;48.160;14.036;2023-05-07T08:46:15;9.93;;;9.10;;
57551;SDS011;43379;48.160;14.036;2023-05-07T08:48:44;9.37;;;8.60;;
57551;SDS011;43379;48.160;14.036;2023-05-07T08:51:13;7.47;;;6.80;;
57551;SDS011;43379;48.160;14.036;2023-05-07T08:53:41;8.20;;;7.40;;
57551;SDS011;43379;48.160;14.036;2023-05-07T08:56:08;9.20;;;8.30;;
57551;SDS011;43379;48.160;14.036;2023-05-07T08:58:34;9.87;;;8.87;;
57551;SDS011;43379;48.160;14.036;2023-05-07T09:01:06;8.20;;;7.40;;
57551;SDS011;43379;48.160;14.036;2023-05-07T09:03:33;9.47;;;8.77;;
57551;SDS011;43379;48.160;14.036;2023-05-07T09:06:00;8.40;;;7.80;;
57551;SDS011;43379;48.160;14.036;2023-05-07T09:08:26;8.00;;;7.27;;
57551;SDS011;43379;48.160;14.036;2023-05-07T09:10:52;7.50;;;7.00;;
57551;SDS011;43379;48.160;14.036;2023-05-07T09:13:18;8.70;;;8.00;;
57551;SDS011;43379;48.160;14.036;2023-05-07T09:15:44;7.60;;;6.90;;
57551;SDS011;43379;48.160;14.036;2023-05-07T09:18:10;7.83;;;7.13;;
57551;SDS011;43379;48.160;14.036;2023-05-07T09:20:37;7.07;;;6.47;;
57551;SDS011;43379;48.160;14.036;2023-05-07T09:23:03;9.27;;;8.47;;
57551;SDS011;43379;48.160;14.036;2023-05-07T09:25:30;9.40;;;8.60;;
57551;SDS011;43379;48.160;14.036;2023-05-07T09:27:59;7.90;;;7.30;;
57551;SDS011;43379;48.160;14.036;2023-05-07T09:30:30;7.80;;;7.10;;
57551;SDS011;43379;48.160;14.036;2023-05-07T09:32:57;8.97;;;8.27;;
57551;SDS011;43379;48.160;14.036;2023-05-07T09:35:24;8.50;;;7.80;;
57551;SDS011;43379;48.160;14.036;2023-05-07T09:37:52;8.50;;;7.73;;
57551;SDS011;43379;48.160;14.036;2023-05-07T09:40:20;8.63;;;7.93;;
57551;SDS011;43379;48.160;14.036;2023-05-07T09:42:50;7.87;;;7.07;;
57551;SDS011;43379;48.160;14.036;2023-05-07T09:45:26;8.50;;;7.77;;
57551;SDS011;43379;48.160;14.036;2023-05-07T09:47:57;7.83;;;7.23;;
57551;SDS011;43379;48.160;14.036;2023-05-07T09:50:30;8.90;;;8.10;;
57551;SDS011;43379;48.160;14.036;2023-05-07T09:53:02;7.80;;;7.13;;
57551;SDS011;43379;48.160;14.036;2023-05-07T09:55:29;8.20;;;7.60;;
57551;SDS011;43379;48.160;14.036;2023-05-07T09:57:55;7.67;;;6.83;;
57551;SDS011;43379;48.160;14.036;2023-05-07T10:00:23;6.83;;;6.23;;
57551;SDS011;43379;48.160;14.036;2023-05-07T10:02:53;8.73;;;8.03;;
57551;SDS011;43379;48.160;14.036;2023-05-07T10:05:22;9.37;;;6.97;;
57551;SDS011;43379;48.160;14.036;2023-05-07T10:07:49;7.40;;;6.70;;
57551;SDS011;43379;48.160;14.036;2023-05-07T10:10:15;6.73;;;6.13;;
57551;SDS011;43379;48.160;14.036;2023-05-07T10:12:42;7.17;;;6.60;;
57551;SDS011;43379;48.160;14.036;2023-05-07T10:15:09;6.97;;;6.47;;
57551;SDS011;43379;48.160;14.036;2023-05-07T10:17:39;7.37;;;6.67;;
57551;SDS011;43379;48.160;14.036;2023-05-07T10:20:05;8.80;;;8.00;;
57551;SDS011;43379;48.160;14.036;2023-05-07T10:22:38;9.00;;;8.20;;
57551;SDS011;43379;48.160;14.036;2023-05-07T10:25:14;7.37;;;6.77;;
57551;SDS011;43379;48.160;14.036;2023-05-07T10:27:53;8.30;;;7.60;;
57551;SDS011;43379;48.160;14.036;2023-05-07T10:33:11;6.47;;;5.97;;
57551;SDS011;43379;48.160;14.036;2023-05-07T10:35:39;6.77;;;6.17;;
57551;SDS011;43379;48.160;14.036;2023-05-07T10:38:07;7.23;;;6.63;;
57551;SDS011;43379;48.160;14.036;2023-05-07T10:40:33;7.20;;;6.60;;
57551;SDS011;43379;48.160;14.036;2023-05-07T10:43:01;6.57;;;6.07;;
57551;SDS011;43379;48.160;14.036;2023-05-07T10:45:30;6.77;;;6.27;;
57551;SDS011;43379;48.160;14.036;2023-05-07T10:48:09;6.63;;;6.13;;
57551;SDS011;43379;48.160;14.036;2023-05-07T10:50:43;6.90;;;6.30;;
57551;SDS011;43379;48.160;14.036;2023-05-07T10:55:43;6.20;;;5.70;;
57551;SDS011;43379;48.160;14.036;2023-05-07T11:00:48;6.70;;;6.20;;
57551;SDS011;43379;48.160;14.036;2023-05-07T11:03:14;7.37;;;6.63;;
57551;SDS011;43379;48.160;14.036;2023-05-07T11:05:40;7.00;;;5.47;;
57551;SDS011;43379;48.160;14.036;2023-05-07T11:08:07;6.30;;;5.80;;
57551;SDS011;43379;48.160;14.036;2023-05-07T11:16:24;5.60;;;5.10;;
57551;SDS011;43379;48.160;14.036;2023-05-07T11:18:53;6.23;;;5.63;;
57551;SDS011;43379;48.160;14.036;2023-05-07T11:21:32;5.27;;;4.87;;
57551;SDS011;43379;48.160;14.036;2023-05-07T11:24:06;6.90;;;6.30;;
57551;SDS011;43379;48.160;14.036;2023-05-07T11:26:49;5.63;;;4.90;;
57551;SDS011;43379;48.160;14.036;2023-05-07T11:29:18;5.97;;;5.37;;
57551;SDS011;43379;48.160;14.036;2023-05-07T11:31:48;5.40;;;5.00;;
57551;SDS011;43379;48.160;14.036;2023-05-07T11:34:15;4.67;;;4.27;;
57551;SDS011;43379;48.160;14.036;2023-05-07T11:36:46;5.83;;;5.43;;
57551;SDS011;43379;48.160;14.036;2023-05-07T11:39:23;5.20;;;4.73;;
57551;SDS011;43379;48.160;14.036;2023-05-07T11:41:53;4.90;;;4.40;;
57551;SDS011;43379;48.160;14.036;2023-05-07T11:44:19;5.10;;;4.70;;
57551;SDS011;43379;48.160;14.036;2023-05-07T11:46:44;5.60;;;5.10;;
57551;SDS011;43379;48.160;14.036;2023-05-07T11:49:10;5.03;;;4.60;;
57551;SDS011;43379;48.160;14.036;2023-05-07T11:51:36;4.80;;;4.40;;
57551;SDS011;43379;48.160;14.036;2023-05-07T11:54:05;4.07;;;3.77;;
57551;SDS011;43379;48.160;14.036;2023-05-07T11:56:36;5.10;;;4.60;;
57551;SDS011;43379;48.160;14.036;2023-05-07T11:59:02;5.37;;;4.87;;
57551;SDS011;43379;48.160;14.036;2023-05-07T12:01:28;6.23;;;5.63;;
57551;SDS011;43379;48.160;14.036;2023-05-07T12:03:54;6.27;;;5.87;;
57551;SDS011;43379;48.160;14.036;2023-05-07T12:06:19;5.60;;;5.20;;
57551;SDS011;43379;48.160;14.036;2023-05-07T12:08:45;4.60;;;4.23;;
57551;SDS011;43379;48.160;14.036;2023-05-07T12:11:32;4.63;;;4.33;;
57551;SDS011;43379;48.160;14.036;2023-05-07T12:13:57;4.67;;;4.27;;
57551;SDS011;43379;48.160;14.036;2023-05-07T12:16:23;4.37;;;3.97;;
57551;SDS011;43379;48.160;14.036;2023-05-07T12:18:48;5.20;;;4.20;;
57551;SDS011;43379;48.160;14.036;2023-05-07T12:21:17;5.20;;;4.70;;
57551;SDS011;43379;48.160;14.036;2023-05-07T12:23:43;4.10;;;3.80;;
57551;SDS011;43379;48.160;14.036;2023-05-07T12:26:10;4.50;;;4.13;;
57551;SDS011;43379;48.160;14.036;2023-05-07T12:28:36;4.50;;;4.20;;
57551;SDS011;43379;48.160;14.036;2023-05-07T12:31:03;4.50;;;4.07;;
57551;SDS011;43379;48.160;14.036;2023-05-07T12:33:30;4.30;;;3.90;;
57551;SDS011;43379;48.160;14.036;2023-05-07T12:35:57;4.57;;;4.27;;
57551;SDS011;43379;48.160;14.036;2023-05-07T12:38:23;4.30;;;3.90;;
57551;SDS011;43379;48.160;14.036;2023-05-07T12:40:50;4.37;;;4.07;;
57551;SDS011;43379;48.160;14.036;2023-05-07T12:43:24;4.93;;;3.87;;
57551;SDS011;43379;48.160;14.036;2023-05-07T12:45:51;5.47;;;5.07;;
57551;SDS011;43379;48.160;14.036;2023-05-07T12:48:19;4.63;;;4.23;;
57551;SDS011;43379;48.160;14.036;2023-05-07T12:50:44;4.40;;;4.00;;
57551;SDS011;43379;48.160;14.036;2023-05-07T12:53:11;4.63;;;4.33;;
57551;SDS011;43379;48.160;14.036;2023-05-07T12:55:41;4.40;;;4.10;;
57551;SDS011;43379;48.160;14.036;2023-05-07T12:58:07;4.87;;;4.40;;
57551;SDS011;43379;48.160;14.036;2023-05-07T13:00:34;4.50;;;4.20;;
57551;SDS011;43379;48.160;14.036;2023-05-07T13:03:01;5.30;;;4.70;;
57551;SDS011;43379;48.160;14.036;2023-05-07T13:05:27;4.10;;;3.80;;
57551;SDS011;43379;48.160;14.036;2023-05-07T13:07:53;4.57;;;4.17;;
57551;SDS011;43379;48.160;14.036;2023-05-07T13:10:19;4.07;;;3.77;;
57551;SDS011;43379;48.160;14.036;2023-05-07T13:12:46;3.73;;;3.23;;
57551;SDS011;43379;48.160;14.036;2023-05-07T13:15:12;4.43;;;4.10;;
57551;SDS011;43379;48.160;14.036;2023-05-07T13:17:37;4.90;;;4.50;;
57551;SDS011;43379;48.160;14.036;2023-05-07T13:20:03;4.97;;;4.57;;
57551;SDS011;43379;48.160;14.036;2023-05-07T13:22:30;4.90;;;3.90;;
57551;SDS011;43379;48.160;14.036;2023-05-07T13:24:56;4.53;;;4.10;;
57551;SDS011;43379;48.160;14.036;2023-05-07T13:27:22;4.50;;;4.10;;
57551;SDS011;43379;48.160;14.036;2023-05-07T13:29:48;6.33;;;4.23;;
57551;SDS011;43379;48.160;14.036;2023-05-07T13:32:13;4.70;;;4.37;;
57551;SDS011;43379;48.160;14.036;2023-05-07T13:34:39;5.00;;;4.60;;
57551;SDS011;43379;48.160;14.036;2023-05-07T13:37:04;5.00;;;4.60;;
57551;SDS011;43379;48.160;14.036;2023-05-07T13:39:32;4.90;;;4.50;;
57551;SDS011;43379;48.160;14.036;2023-05-07T13:41:58;4.87;;;4.40;;
57551;SDS011;43379;48.160;14.036;2023-05-07T13:44:24;8.20;;;5.37;;
57551;SDS011;43379;48.160;14.036;2023-05-07T13:46:50;5.67;;;5.17;;
57551;SDS011;43379;48.160;14.036;2023-05-07T13:49:16;7.00;;;4.73;;
57551;SDS011;43379;48.160;14.036;2023-05-07T13:51:41;4.73;;;4.43;;
57551;SDS011;43379;48.160;14.036;2023-05-07T13:54:07;5.23;;;4.83;;
57551;SDS011;43379;48.160;14.036;2023-05-07T13:56:33;5.70;;;5.30;;
57551;SDS011;43379;48.160;14.036;2023-05-07T13:58:59;5.27;;;4.87;;
57551;SDS011;43379;48.160;14.036;2023-05-07T14:01:24;5.57;;;5.07;;
57551;SDS011;43379;48.160;14.036;2023-05-07T14:03:50;5.97;;;5.47;;
57551;SDS011;43379;48.160;14.036;2023-05-07T14:06:16;6.37;;;5.77;;
57551;SDS011;43379;48.160;14.036;2023-05-07T14:08:41;5.73;;;5.33;;
57551;SDS011;43379;48.160;14.036;2023-05-07T14:11:07;6.30;;;5.73;;
57551;SDS011;43379;48.160;14.036;2023-05-07T14:13:32;6.30;;;5.90;;
57551;SDS011;43379;48.160;14.036;2023-05-07T14:15:59;7.23;;;6.63;;
57551;SDS011;43379;48.160;14.036;2023-05-07T14:18:25;7.10;;;6.50;;
57551;SDS011;43379;48.160;14.036;2023-05-07T14:20:51;7.40;;;6.80;;
57551;SDS011;43379;48.160;14.036;2023-05-07T14:23:17;6.43;;;5.83;;
57551;SDS011;43379;48.160;14.036;2023-05-07T14:25:44;6.37;;;5.87;;
57551;SDS011;43379;48.160;14.036;2023-05-07T14:28:12;6.50;;;6.10;;
57551;SDS011;43379;48.160;14.036;2023-05-07T14:30:38;6.13;;;5.63;;
57551;SDS011;43379;48.160;14.036;2023-05-07T14:33:04;7.17;;;6.57;;
57551;SDS011;43379;48.160;14.036;2023-05-07T14:35:30;7.13;;;6.53;;
57551;SDS011;43379;48.160;14.036;2023-05-07T14:37:55;6.77;;;6.17;;
57551;SDS011;43379;48.160;14.036;2023-05-07T14:40:21;7.07;;;6.37;;